sensor_id;sensor_type;location;lat;lon;timestamp;temperature;humidity
11446;DHT22;5779;64.178;15.432;2023-03-29T00:01:25;-17.20;99.20
11446;DHT22;5779;64.178;15.432;2023-03-29T00:04:15;-17.40;98.60
11446;DHT22;5779;64.178;15.432;2023-03-29T00:07:03;-17.90;98.10
11446;DHT22;5779;64.178;15.432;2023-03-29T00:09:50;-17.90;98.70
11446;DHT22;5779;64.178;15.432;2023-03-29T00:12:38;-18.00;98.90
11446;DHT22;5779;64.178;15.432;2023-03-29T00:15:27;-17.80;99.20
11446;DHT22;5779;64.178;15.432;2023-03-29T00:18:14;-17.70;99.30
11446;DHT22;5779;64.178;15.432;2023-03-29T00:21:01;-17.70;99.10
11446;DHT22;5779;64.178;15.432;2023-03-29T00:23:49;-17.60;99.10
11446;DHT22;5779;64.178;15.432;2023-03-29T00:26:35;-17.60;99.00
11446;DHT22;5779;64.178;15.432;2023-03-29T00:29:22;-17.60;98.50
11446;DHT22;5779;64.178;15.432;2023-03-29T00:32:11;-17.60;99.30
11446;DHT22;5779;64.178;15.432;2023-03-29T00:34:58;-17.50;99.10
11446;DHT22;5779;64.178;15.432;2023-03-29T00:37:46;-17.50;99.10
11446;DHT22;5779;64.178;15.432;2023-03-29T00:40:40;-17.60;97.90
11446;DHT22;5779;64.178;15.432;2023-03-29T00:43:27;-17.80;97.10
11446;DHT22;5779;64.178;15.432;2023-03-29T00:46:14;-17.90;97.30
11446;DHT22;5779;64.178;15.432;2023-03-29T00:49:07;-17.90;97.60
11446;DHT22;5779;64.178;15.432;2023-03-29T00:51:56;-18.00;98.00
11446;DHT22;5779;64.178;15.432;2023-03-29T00:54:43;-18.00;98.40
11446;DHT22;5779;64.178;15.432;2023-03-29T00:57:32;-17.80;99.00
11446;DHT22;5779;64.178;15.432;2023-03-29T01:00:22;-17.80;98.80
11446;DHT22;5779;64.178;15.432;2023-03-29T01:03:13;-17.80;99.00
11446;DHT22;5779;64.178;15.432;2023-03-29T01:06:11;-17.80;99.00
11446;DHT22;5779;64.178;15.432;2023-03-29T01:09:00;-17.80;98.80
11446;DHT22;5779;64.178;15.432;2023-03-29T01:11:51;-17.80;98.40
11446;DHT22;5779;64.178;15.432;2023-03-29T01:14:41;-18.00;97.70
11446;DHT22;5779;64.178;15.432;2023-03-29T01:17:30;-18.00;97.40
11446;DHT22;5779;64.178;15.432;2023-03-29T01:20:20;-18.10;97.40
11446;DHT22;5779;64.178;15.432;2023-03-29T01:23:27;-18.10;97.60
11446;DHT22;5779;64.178;15.432;2023-03-29T01:26:20;-18.30;97.90
11446;DHT22;5779;64.178;15.432;2023-03-29T01:29:14;-18.30;98.10
11446;DHT22;5779;64.178;15.432;2023-03-29T01:32:06;-18.20;98.30
11446;DHT22;5779;64.178;15.432;2023-03-29T01:34:56;-18.20;98.30
11446;DHT22;5779;64.178;15.432;2023-03-29T01:37:46;-18.20;98.50
11446;DHT22;5779;64.178;15.432;2023-03-29T01:40:37;-18.20;98.30
11446;DHT22;5779;64.178;15.432;2023-03-29T01:43:26;-18.30;98.40
11446;DHT22;5779;64.178;15.432;2023-03-29T01:46:20;-18.30;98.10
11446;DHT22;5779;64.178;15.432;2023-03-29T01:49:13;-18.40;97.60
11446;DHT22;5779;64.178;15.432;2023-03-29T01:52:06;-18.50;97.20
11446;DHT22;5779;64.178;15.432;2023-03-29T01:54:59;-18.60;97.40
11446;DHT22;5779;64.178;15.432;2023-03-29T01:57:49;-18.60;97.40
11446;DHT22;5779;64.178;15.432;2023-03-29T02:00:38;-18.60;97.40
11446;DHT22;5779;64.178;15.432;2023-03-29T02:03:28;-18.70;97.10
11446;DHT22;5779;64.178;15.432;2023-03-29T02:06:18;-18.70;97.20
11446;DHT22;5779;64.178;15.432;2023-03-29T02:09:06;-18.70;97.00
11446;DHT22;5779;64.178;15.432;2023-03-29T02:11:57;-18.90;96.80
11446;DHT22;5779;64.178;15.432;2023-03-29T02:14:45;-19.00;96.90
11446;DHT22;5779;64.178;15.432;2023-03-29T02:17:32;-18.90;97.30
11446;DHT22;5779;64.178;15.432;2023-03-29T02:20:23;-18.80;97.50
11446;DHT22;5779;64.178;15.432;2023-03-29T02:23:14;-18.80;97.70
11446;DHT22;5779;64.178;15.432;2023-03-29T02:26:02;-18.80;97.30
11446;DHT22;5779;64.178;15.432;2023-03-29T02:28:50;-18.80;97.30
11446;DHT22;5779;64.178;15.432;2023-03-29T02:31:42;-18.80;97.40
11446;DHT22;5779;64.178;15.432;2023-03-29T02:34:31;-18.90;97.40
11446;DHT22;5779;64.178;15.432;2023-03-29T02:37:24;-19.00;97.00
11446;DHT22;5779;64.178;15.432;2023-03-29T02:40:15;-19.00;96.90
11446;DHT22;5779;64.178;15.432;2023-03-29T02:43:03;-19.00;96.90
11446;DHT22;5779;64.178;15.432;2023-03-29T02:45:51;-19.20;96.60
11446;DHT22;5779;64.178;15.432;2023-03-29T02:48:39;-19.20;96.60
11446;DHT22;5779;64.178;15.432;2023-03-29T02:51:30;-19.40;96.10
11446;DHT22;5779;64.178;15.432;2023-03-29T02:54:21;-19.40;97.00
11446;DHT22;5779;64.178;15.432;2023-03-29T02:57:10;-19.30;97.40
11446;DHT22;5779;64.178;15.432;2023-03-29T02:59:58;-19.30;97.20
11446;DHT22;5779;64.178;15.432;2023-03-29T03:02:46;-19.20;97.10
11446;DHT22;5779;64.178;15.432;2023-03-29T03:05:35;-19.40;96.70
11446;DHT22;5779;64.178;15.432;2023-03-29T03:08:22;-19.40;96.90
11446;DHT22;5779;64.178;15.432;2023-03-29T03:11:10;-19.90;96.80
11446;DHT22;5779;64.178;15.432;2023-03-29T03:13:57;-19.80;97.50
11446;DHT22;5779;64.178;15.432;2023-03-29T03:16:44;-19.90;97.20
11446;DHT22;5779;64.178;15.432;2023-03-29T03:19:30;-19.70;97.80
11446;DHT22;5779;64.178;15.432;2023-03-29T03:22:17;-19.70;97.50
11446;DHT22;5779;64.178;15.432;2023-03-29T03:25:05;-19.70;97.00
11446;DHT22;5779;64.178;15.432;2023-03-29T03:27:55;-19.70;97.30
11446;DHT22;5779;64.178;15.432;2023-03-29T03:30:42;-19.70;97.40
11446;DHT22;5779;64.178;15.432;2023-03-29T03:33:29;-19.70;96.90
11446;DHT22;5779;64.178;15.432;2023-03-29T03:36:15;-19.60;97.00
11446;DHT22;5779;64.178;15.432;2023-03-29T03:39:03;-19.60;97.10
11446;DHT22;5779;64.178;15.432;2023-03-29T03:41:51;-19.50;97.00
11446;DHT22;5779;64.178;15.432;2023-03-29T03:44:39;-19.60;96.60
11446;DHT22;5779;64.178;15.432;2023-03-29T03:47:26;-19.80;96.20
11446;DHT22;5779;64.178;15.432;2023-03-29T03:50:13;-19.80;96.20
11446;DHT22;5779;64.178;15.432;2023-03-29T03:52:59;-19.70;95.80
11446;DHT22;5779;64.178;15.432;2023-03-29T03:55:47;-19.80;95.50
11446;DHT22;5779;64.178;15.432;2023-03-29T03:58:34;-19.90;96.10
11446;DHT22;5779;64.178;15.432;2023-03-29T04:01:23;-19.80;96.50
11446;DHT22;5779;64.178;15.432;2023-03-29T04:04:11;-19.90;96.60
11446;DHT22;5779;64.178;15.432;2023-03-29T04:06:58;-19.90;96.50
11446;DHT22;5779;64.178;15.432;2023-03-29T04:09:47;-20.50;95.20
11446;DHT22;5779;64.178;15.432;2023-03-29T04:12:34;-20.70;95.90
11446;DHT22;5779;64.178;15.432;2023-03-29T04:15:21;-20.80;96.70
11446;DHT22;5779;64.178;15.432;2023-03-29T04:18:09;-20.80;96.70
11446;DHT22;5779;64.178;15.432;2023-03-29T04:20:56;-20.80;96.60
11446;DHT22;5779;64.178;15.432;2023-03-29T04:23:43;-20.80;96.40
11446;DHT22;5779;64.178;15.432;2023-03-29T04:26:30;-20.90;95.70
11446;DHT22;5779;64.178;15.432;2023-03-29T04:29:17;-21.50;94.70
11446;DHT22;5779;64.178;15.432;2023-03-29T04:32:04;-21.50;96.10
11446;DHT22;5779;64.178;15.432;2023-03-29T04:34:52;-21.30;96.60
11446;DHT22;5779;64.178;15.432;2023-03-29T04:37:39;-21.00;97.20
11446;DHT22;5779;64.178;15.432;2023-03-29T04:40:26;-20.90;97.00
11446;DHT22;5779;64.178;15.432;2023-03-29T04:43:13;-20.70;96.80
11446;DHT22;5779;64.178;15.432;2023-03-29T04:46:00;-20.70;96.50
11446;DHT22;5779;64.178;15.432;2023-03-29T04:48:47;-20.60;96.50
11446;DHT22;5779;64.178;15.432;2023-03-29T04:51:35;-20.50;96.60
11446;DHT22;5779;64.178;15.432;2023-03-29T04:54:22;-20.50;96.60
11446;DHT22;5779;64.178;15.432;2023-03-29T04:57:09;-20.40;96.50
11446;DHT22;5779;64.178;15.432;2023-03-29T04:59:56;-20.40;96.10
11446;DHT22;5779;64.178;15.432;2023-03-29T05:02:43;-20.40;95.80
11446;DHT22;5779;64.178;15.432;2023-03-29T05:05:30;-20.50;95.20
11446;DHT22;5779;64.178;15.432;2023-03-29T05:08:18;-20.50;95.20
11446;DHT22;5779;64.178;15.432;2023-03-29T05:11:05;-20.60;94.90
11446;DHT22;5779;64.178;15.432;2023-03-29T05:13:55;-20.50;95.30
11446;DHT22;5779;64.178;15.432;2023-03-29T05:16:52;-20.50;95.20
11446;DHT22;5779;64.178;15.432;2023-03-29T05:19:42;-20.40;95.20
11446;DHT22;5779;64.178;15.432;2023-03-29T05:22:29;-20.30;95.30
11446;DHT22;5779;64.178;15.432;2023-03-29T05:25:20;-20.40;95.00
11446;DHT22;5779;64.178;15.432;2023-03-29T05:28:08;-20.30;95.00
11446;DHT22;5779;64.178;15.432;2023-03-29T05:30:59;-20.30;95.00
11446;DHT22;5779;64.178;15.432;2023-03-29T05:33:48;-20.20;95.20
11446;DHT22;5779;64.178;15.432;2023-03-29T05:36:38;-20.10;95.20
11446;DHT22;5779;64.178;15.432;2023-03-29T05:39:27;-20.30;94.70
11446;DHT22;5779;64.178;15.432;2023-03-29T05:42:15;-20.20;95.40
11446;DHT22;5779;64.178;15.432;2023-03-29T05:45:07;-20.00;96.00
11446;DHT22;5779;64.178;15.432;2023-03-29T05:47:55;-19.90;95.90
11446;DHT22;5779;64.178;15.432;2023-03-29T05:50:46;-19.70;95.90
11446;DHT22;5779;64.178;15.432;2023-03-29T05:53:35;-19.60;95.90
11446;DHT22;5779;64.178;15.432;2023-03-29T05:56:28;-19.40;96.20
11446;DHT22;5779;64.178;15.432;2023-03-29T05:59:19;-19.20;96.20
11446;DHT22;5779;64.178;15.432;2023-03-29T06:02:08;-19.00;97.00
11446;DHT22;5779;64.178;15.432;2023-03-29T06:04:55;-18.90;96.50
11446;DHT22;5779;64.178;15.432;2023-03-29T06:07:42;-18.80;96.30
11446;DHT22;5779;64.178;15.432;2023-03-29T06:10:29;-18.60;96.30
11446;DHT22;5779;64.178;15.432;2023-03-29T06:13:19;-18.60;95.90
11446;DHT22;5779;64.178;15.432;2023-03-29T06:16:08;-18.60;95.10
11446;DHT22;5779;64.178;15.432;2023-03-29T06:18:57;-18.70;95.00
11446;DHT22;5779;64.178;15.432;2023-03-29T06:21:45;-18.60;95.30
11446;DHT22;5779;64.178;15.432;2023-03-29T06:24:35;-18.60;95.10
11446;DHT22;5779;64.178;15.432;2023-03-29T06:27:21;-18.40;95.60
11446;DHT22;5779;64.178;15.432;2023-03-29T06:30:10;-18.20;95.90
11446;DHT22;5779;64.178;15.432;2023-03-29T06:32:59;-18.00;96.30
11446;DHT22;5779;64.178;15.432;2023-03-29T06:35:49;-17.80;96.70
11446;DHT22;5779;64.178;15.432;2023-03-29T06:38:36;-17.60;96.90
11446;DHT22;5779;64.178;15.432;2023-03-29T06:41:24;-17.40;96.60
11446;DHT22;5779;64.178;15.432;2023-03-29T06:44:11;-17.30;96.60
11446;DHT22;5779;64.178;15.432;2023-03-29T06:46:59;-17.20;96.30
11446;DHT22;5779;64.178;15.432;2023-03-29T06:49:47;-17.00;96.70
11446;DHT22;5779;64.178;15.432;2023-03-29T06:52:34;-16.90;96.60
11446;DHT22;5779;64.178;15.432;2023-03-29T06:55:21;-16.60;97.90
11446;DHT22;5779;64.178;15.432;2023-03-29T06:58:08;-16.30;98.10
11446;DHT22;5779;64.178;15.432;2023-03-29T07:00:59;-16.10;98.50
11446;DHT22;5779;64.178;15.432;2023-03-29T07:03:46;-15.80;99.30
11446;DHT22;5779;64.178;15.432;2023-03-29T07:06:34;-15.60;99.10
11446;DHT22;5779;64.178;15.432;2023-03-29T07:09:22;-15.20;99.90
11446;DHT22;5779;64.178;15.432;2023-03-29T07:12:10;-14.90;99.90
11446;DHT22;5779;64.178;15.432;2023-03-29T07:14:57;-14.60;99.90
11446;DHT22;5779;64.178;15.432;2023-03-29T07:17:43;-14.60;99.10
11446;DHT22;5779;64.178;15.432;2023-03-29T07:20:31;-14.50;99.70
11446;DHT22;5779;64.178;15.432;2023-03-29T07:23:19;-14.30;99.90
11446;DHT22;5779;64.178;15.432;2023-03-29T07:26:06;-13.90;99.90
11446;DHT22;5779;64.178;15.432;2023-03-29T07:28:53;-13.60;99.90
11446;DHT22;5779;64.178;15.432;2023-03-29T07:31:40;-13.20;99.90
11446;DHT22;5779;64.178;15.432;2023-03-29T07:34:28;-12.90;99.90
11446;DHT22;5779;64.178;15.432;2023-03-29T07:37:15;-12.40;99.90
11446;DHT22;5779;64.178;15.432;2023-03-29T07:40:05;-12.30;99.90
11446;DHT22;5779;64.178;15.432;2023-03-29T07:42:56;-11.90;99.90
11446;DHT22;5779;64.178;15.432;2023-03-29T07:45:43;-11.60;99.90
11446;DHT22;5779;64.178;15.432;2023-03-29T07:48:30;-11.30;99.90
11446;DHT22;5779;64.178;15.432;2023-03-29T07:51:17;-11.00;99.90
11446;DHT22;5779;64.178;15.432;2023-03-29T07:54:04;-10.90;99.90
11446;DHT22;5779;64.178;15.432;2023-03-29T07:56:53;-11.30;98.70
11446;DHT22;5779;64.178;15.432;2023-03-29T07:59:40;-11.50;99.90
11446;DHT22;5779;64.178;15.432;2023-03-29T08:02:26;-11.00;99.90
11446;DHT22;5779;64.178;15.432;2023-03-29T08:05:14;-10.50;99.90
11446;DHT22;5779;64.178;15.432;2023-03-29T08:08:01;-10.00;99.90
11446;DHT22;5779;64.178;15.432;2023-03-29T08:10:48;-9.70;99.90
11446;DHT22;5779;64.178;15.432;2023-03-29T08:13:37;-9.50;99.60
11446;DHT22;5779;64.178;15.432;2023-03-29T08:16:24;-9.20;99.60
11446;DHT22;5779;64.178;15.432;2023-03-29T08:19:11;-8.80;99.50
11446;DHT22;5779;64.178;15.432;2023-03-29T08:21:59;-8.40;99.30
11446;DHT22;5779;64.178;15.432;2023-03-29T08:24:45;-8.00;99.20
11446;DHT22;5779;64.178;15.432;2023-03-29T08:27:32;-7.80;99.00
11446;DHT22;5779;64.178;15.432;2023-03-29T08:30:21;-7.70;98.50
11446;DHT22;5779;64.178;15.432;2023-03-29T08:33:07;-7.60;98.50
11446;DHT22;5779;64.178;15.432;2023-03-29T08:35:54;-7.30;98.50
11446;DHT22;5779;64.178;15.432;2023-03-29T08:38:41;-7.00;98.00
11446;DHT22;5779;64.178;15.432;2023-03-29T08:41:37;-6.80;97.70
11446;DHT22;5779;64.178;15.432;2023-03-29T08:44:39;-6.60;97.50
11446;DHT22;5779;64.178;15.432;2023-03-29T08:47:42;-6.50;97.50
11446;DHT22;5779;64.178;15.432;2023-03-29T08:50:34;-6.50;97.10
11446;DHT22;5779;64.178;15.432;2023-03-29T08:53:25;-6.30;97.00
11446;DHT22;5779;64.178;15.432;2023-03-29T08:56:15;-6.10;96.80
11446;DHT22;5779;64.178;15.432;2023-03-29T08:59:05;-6.00;96.40
11446;DHT22;5779;64.178;15.432;2023-03-29T09:02:01;-5.90;96.40
11446;DHT22;5779;64.178;15.432;2023-03-29T09:04:51;-5.60;96.20
11446;DHT22;5779;64.178;15.432;2023-03-29T09:07:44;-5.70;95.80
11446;DHT22;5779;64.178;15.432;2023-03-29T09:10:36;-5.70;96.10
11446;DHT22;5779;64.178;15.432;2023-03-29T09:13:33;-5.60;95.30
11446;DHT22;5779;64.178;15.432;2023-03-29T09:16:28;-5.40;95.00
11446;DHT22;5779;64.178;15.432;2023-03-29T09:19:24;-5.20;95.00
11446;DHT22;5779;64.178;15.432;2023-03-29T09:22:18;-4.90;94.60
11446;DHT22;5779;64.178;15.432;2023-03-29T09:25:12;-5.20;94.30
11446;DHT22;5779;64.178;15.432;2023-03-29T09:28:10;-5.10;94.10
11446;DHT22;5779;64.178;15.432;2023-03-29T09:31:02;-4.90;94.50
11446;DHT22;5779;64.178;15.432;2023-03-29T09:33:55;-4.80;93.90
11446;DHT22;5779;64.178;15.432;2023-03-29T09:36:50;-5.00;93.80
11446;DHT22;5779;64.178;15.432;2023-03-29T09:39:39;-4.70;93.90
11446;DHT22;5779;64.178;15.432;2023-03-29T09:42:27;-4.50;93.60
11446;DHT22;5779;64.178;15.432;2023-03-29T09:45:15;-4.20;93.50
11446;DHT22;5779;64.178;15.432;2023-03-29T09:48:05;-3.90;92.10
11446;DHT22;5779;64.178;15.432;2023-03-29T09:50:55;-4.00;92.30
11446;DHT22;5779;64.178;15.432;2023-03-29T09:53:42;-4.00;92.00
11446;DHT22;5779;64.178;15.432;2023-03-29T09:56:31;-3.90;91.60
11446;DHT22;5779;64.178;15.432;2023-03-29T09:59:17;-4.20;92.30
11446;DHT22;5779;64.178;15.432;2023-03-29T10:02:08;-4.60;92.20
11446;DHT22;5779;64.178;15.432;2023-03-29T10:04:56;-4.70;91.90
11446;DHT22;5779;64.178;15.432;2023-03-29T10:07:47;-4.60;92.10
11446;DHT22;5779;64.178;15.432;2023-03-29T10:10:34;-4.40;93.00
11446;DHT22;5779;64.178;15.432;2023-03-29T10:13:27;-4.50;91.90
11446;DHT22;5779;64.178;15.432;2023-03-29T10:16:19;-4.30;91.50
11446;DHT22;5779;64.178;15.432;2023-03-29T10:19:17;-4.10;91.50
11446;DHT22;5779;64.178;15.432;2023-03-29T10:22:05;-4.20;92.20
11446;DHT22;5779;64.178;15.432;2023-03-29T10:24:54;-4.20;92.10
11446;DHT22;5779;64.178;15.432;2023-03-29T10:27:44;-4.30;91.80
11446;DHT22;5779;64.178;15.432;2023-03-29T10:30:34;-4.40;92.20
11446;DHT22;5779;64.178;15.432;2023-03-29T10:33:26;-4.30;91.20
11446;DHT22;5779;64.178;15.432;2023-03-29T10:36:13;-4.30;91.20
11446;DHT22;5779;64.178;15.432;2023-03-29T10:39:02;-4.20;91.50
11446;DHT22;5779;64.178;15.432;2023-03-29T10:41:50;-4.20;91.50
11446;DHT22;5779;64.178;15.432;2023-03-29T10:44:39;-4.10;91.40
11446;DHT22;5779;64.178;15.432;2023-03-29T10:47:30;-4.00;91.20
11446;DHT22;5779;64.178;15.432;2023-03-29T10:50:18;-3.80;91.20
11446;DHT22;5779;64.178;15.432;2023-03-29T10:53:09;-3.60;90.70
11446;DHT22;5779;64.178;15.432;2023-03-29T10:56:10;-3.90;90.60
11446;DHT22;5779;64.178;15.432;2023-03-29T10:59:17;-3.70;90.60
11446;DHT22;5779;64.178;15.432;2023-03-29T11:02:46;-3.50;90.30
11446;DHT22;5779;64.178;15.432;2023-03-29T11:05:40;-3.20;90.60
11446;DHT22;5779;64.178;15.432;2023-03-29T11:08:42;-3.20;90.50
11446;DHT22;5779;64.178;15.432;2023-03-29T11:11:44;-3.30;90.80
11446;DHT22;5779;64.178;15.432;2023-03-29T11:14:42;-3.20;90.70
11446;DHT22;5779;64.178;15.432;2023-03-29T11:17:44;-3.00;90.40
11446;DHT22;5779;64.178;15.432;2023-03-29T11:20:39;-3.30;91.00
11446;DHT22;5779;64.178;15.432;2023-03-29T11:23:35;-3.20;90.80
11446;DHT22;5779;64.178;15.432;2023-03-29T11:26:29;-3.50;90.90
11446;DHT22;5779;64.178;15.432;2023-03-29T11:29:23;-3.70;91.20
11446;DHT22;5779;64.178;15.432;2023-03-29T11:32:14;-3.30;90.30
11446;DHT22;5779;64.178;15.432;2023-03-29T11:35:15;-3.30;90.10
11446;DHT22;5779;64.178;15.432;2023-03-29T11:38:15;-3.50;90.30
11446;DHT22;5779;64.178;15.432;2023-03-29T11:41:12;-3.40;90.30
11446;DHT22;5779;64.178;15.432;2023-03-29T11:44:03;-2.90;90.60
11446;DHT22;5779;64.178;15.432;2023-03-29T11:46:56;-2.10;90.60
11446;DHT22;5779;64.178;15.432;2023-03-29T11:49:46;-2.70;89.10
11446;DHT22;5779;64.178;15.432;2023-03-29T11:52:38;-2.90;90.40
11446;DHT22;5779;64.178;15.432;2023-03-29T11:55:28;-3.00;90.00
11446;DHT22;5779;64.178;15.432;2023-03-29T11:58:18;-3.00;90.00
11446;DHT22;5779;64.178;15.432;2023-03-29T12:01:09;-3.30;89.30
11446;DHT22;5779;64.178;15.432;2023-03-29T12:04:00;-3.40;90.40
11446;DHT22;5779;64.178;15.432;2023-03-29T12:06:53;-3.20;91.00
11446;DHT22;5779;64.178;15.432;2023-03-29T12:09:45;-3.20;91.00
11446;DHT22;5779;64.178;15.432;2023-03-29T12:12:45;-3.20;90.40
11446;DHT22;5779;64.178;15.432;2023-03-29T12:15:41;-2.90;90.60
11446;DHT22;5779;64.178;15.432;2023-03-29T12:18:32;-3.20;89.30
11446;DHT22;5779;64.178;15.432;2023-03-29T12:21:22;-3.30;89.20
11446;DHT22;5779;64.178;15.432;2023-03-29T12:24:10;-2.80;90.10
11446;DHT22;5779;64.178;15.432;2023-03-29T12:27:14;-2.60;90.00
11446;DHT22;5779;64.178;15.432;2023-03-29T12:30:21;-3.00;90.30
11446;DHT22;5779;64.178;15.432;2023-03-29T12:36:47;-3.00;89.50
11446;DHT22;5779;64.178;15.432;2023-03-29T12:39:36;-3.00;90.00
11446;DHT22;5779;64.178;15.432;2023-03-29T12:42:23;-2.90;90.10
11446;DHT22;5779;64.178;15.432;2023-03-29T12:45:16;-2.80;90.30
11446;DHT22;5779;64.178;15.432;2023-03-29T12:48:05;-3.00;89.40
11446;DHT22;5779;64.178;15.432;2023-03-29T12:50:53;-2.80;89.70
11446;DHT22;5779;64.178;15.432;2023-03-29T12:53:42;-2.70;88.80
11446;DHT22;5779;64.178;15.432;2023-03-29T12:56:37;-2.50;89.10
11446;DHT22;5779;64.178;15.432;2023-03-29T12:59:32;-2.20;87.60
11446;DHT22;5779;64.178;15.432;2023-03-29T13:02:33;-2.00;89.70
11446;DHT22;5779;64.178;15.432;2023-03-29T13:05:31;-2.20;87.70
11446;DHT22;5779;64.178;15.432;2023-03-29T13:08:22;-2.30;87.20
11446;DHT22;5779;64.178;15.432;2023-03-29T13:11:24;-2.50;89.00
11446;DHT22;5779;64.178;15.432;2023-03-29T13:14:16;-2.50;89.00
11446;DHT22;5779;64.178;15.432;2023-03-29T13:17:06;-2.20;89.60
11446;DHT22;5779;64.178;15.432;2023-03-29T13:20:22;-2.30;88.80
11446;DHT22;5779;64.178;15.432;2023-03-29T13:23:25;-2.60;88.40
11446;DHT22;5779;64.178;15.432;2023-03-29T13:26:32;-2.60;88.90
11446;DHT22;5779;64.178;15.432;2023-03-29T13:29:48;-2.30;90.10
11446;DHT22;5779;64.178;15.432;2023-03-29T13:32:46;-2.20;89.50
11446;DHT22;5779;64.178;15.432;2023-03-29T13:35:43;-2.10;87.30
11446;DHT22;5779;64.178;15.432;2023-03-29T13:38:31;-1.70;87.10
11446;DHT22;5779;64.178;15.432;2023-03-29T13:41:30;-2.10;85.80
11446;DHT22;5779;64.178;15.432;2023-03-29T13:44:25;-2.50;87.70
11446;DHT22;5779;64.178;15.432;2023-03-29T13:47:27;-2.50;87.70
11446;DHT22;5779;64.178;15.432;2023-03-29T13:50:34;-2.40;86.80
11446;DHT22;5779;64.178;15.432;2023-03-29T13:53:26;-1.70;86.70
11446;DHT22;5779;64.178;15.432;2023-03-29T13:56:17;-1.60;87.40
11446;DHT22;5779;64.178;15.432;2023-03-29T13:59:11;-1.90;87.20
11446;DHT22;5779;64.178;15.432;2023-03-29T14:02:02;-1.90;89.00
11446;DHT22;5779;64.178;15.432;2023-03-29T14:04:50;-2.30;90.10
11446;DHT22;5779;64.178;15.432;2023-03-29T14:07:40;-2.30;90.10
11446;DHT22;5779;64.178;15.432;2023-03-29T14:10:33;-1.80;90.30
11446;DHT22;5779;64.178;15.432;2023-03-29T14:13:24;-2.30;89.50
11446;DHT22;5779;64.178;15.432;2023-03-29T14:16:11;-2.20;88.20
11446;DHT22;5779;64.178;15.432;2023-03-29T14:18:59;-2.30;90.20
11446;DHT22;5779;64.178;15.432;2023-03-29T14:21:49;-2.30;90.10
11446;DHT22;5779;64.178;15.432;2023-03-29T14:24:39;-2.30;90.10
11446;DHT22;5779;64.178;15.432;2023-03-29T14:27:29;-2.20;89.40
11446;DHT22;5779;64.178;15.432;2023-03-29T14:30:20;-2.10;89.10
11446;DHT22;5779;64.178;15.432;2023-03-29T14:33:11;-2.20;89.90
11446;DHT22;5779;64.178;15.432;2023-03-29T14:35:59;-2.40;89.50
11446;DHT22;5779;64.178;15.432;2023-03-29T14:38:49;-2.10;90.20
11446;DHT22;5779;64.178;15.432;2023-03-29T14:41:37;-2.00;89.50
11446;DHT22;5779;64.178;15.432;2023-03-29T14:44:28;-2.10;90.10
11446;DHT22;5779;64.178;15.432;2023-03-29T14:47:23;-2.20;90.60
11446;DHT22;5779;64.178;15.432;2023-03-29T14:50:16;-2.30;89.80
11446;DHT22;5779;64.178;15.432;2023-03-29T14:53:04;-2.10;90.20
11446;DHT22;5779;64.178;15.432;2023-03-29T14:55:53;-2.40;89.80
11446;DHT22;5779;64.178;15.432;2023-03-29T14:58:44;-2.60;90.50
11446;DHT22;5779;64.178;15.432;2023-03-29T15:01:42;-2.60;90.30
11446;DHT22;5779;64.178;15.432;2023-03-29T15:04:33;-2.70;89.80
11446;DHT22;5779;64.178;15.432;2023-03-29T15:07:22;-2.80;89.60
11446;DHT22;5779;64.178;15.432;2023-03-29T15:10:16;-2.70;89.80
11446;DHT22;5779;64.178;15.432;2023-03-29T15:13:04;-2.30;90.10
11446;DHT22;5779;64.178;15.432;2023-03-29T15:15:54;-2.10;89.40
11446;DHT22;5779;64.178;15.432;2023-03-29T15:18:45;-2.50;89.30
11446;DHT22;5779;64.178;15.432;2023-03-29T15:21:34;-2.50;90.00
11446;DHT22;5779;64.178;15.432;2023-03-29T15:24:27;-2.90;90.40
11446;DHT22;5779;64.178;15.432;2023-03-29T15:27:16;-2.80;89.70
11446;DHT22;5779;64.178;15.432;2023-03-29T15:30:11;-2.80;89.70
11446;DHT22;5779;64.178;15.432;2023-03-29T15:33:18;-2.80;89.70
11446;DHT22;5779;64.178;15.432;2023-03-29T15:36:09;-2.70;89.80
11446;DHT22;5779;64.178;15.432;2023-03-29T15:38:56;-2.60;89.90
11446;DHT22;5779;64.178;15.432;2023-03-29T15:41:46;-2.40;90.10
11446;DHT22;5779;64.178;15.432;2023-03-29T15:44:34;-2.60;89.90
11446;DHT22;5779;64.178;15.432;2023-03-29T15:47:23;-2.50;89.90
11446;DHT22;5779;64.178;15.432;2023-03-29T15:50:10;-2.60;89.30
11446;DHT22;5779;64.178;15.432;2023-03-29T15:52:58;-2.70;89.10
11446;DHT22;5779;64.178;15.432;2023-03-29T15:55:47;-2.40;90.00
11446;DHT22;5779;64.178;15.432;2023-03-29T15:58:34;-2.60;89.30
11446;DHT22;5779;64.178;15.432;2023-03-29T16:01:26;-2.50;90.00
11446;DHT22;5779;64.178;15.432;2023-03-29T16:04:19;-2.70;88.30
11446;DHT22;5779;64.178;15.432;2023-03-29T16:07:11;-3.00;89.10
11446;DHT22;5779;64.178;15.432;2023-03-29T16:10:00;-2.90;89.60
11446;DHT22;5779;64.178;15.432;2023-03-29T16:12:47;-3.00;88.90
11446;DHT22;5779;64.178;15.432;2023-03-29T16:15:35;-3.10;90.10
11446;DHT22;5779;64.178;15.432;2023-03-29T16:18:22;-2.90;90.50
11446;DHT22;5779;64.178;15.432;2023-03-29T16:21:10;-2.80;89.50
11446;DHT22;5779;64.178;15.432;2023-03-29T16:23:58;-3.00;90.10
11446;DHT22;5779;64.178;15.432;2023-03-29T16:26:47;-2.80;89.70
11446;DHT22;5779;64.178;15.432;2023-03-29T16:29:33;-3.10;89.40
11446;DHT22;5779;64.178;15.432;2023-03-29T16:32:20;-3.10;90.40
11446;DHT22;5779;64.178;15.432;2023-03-29T16:35:12;-3.20;90.30
11446;DHT22;5779;64.178;15.432;2023-03-29T16:38:01;-3.30;90.40
11446;DHT22;5779;64.178;15.432;2023-03-29T16:40:48;-3.30;90.30
11446;DHT22;5779;64.178;15.432;2023-03-29T16:43:36;-3.30;90.60
11446;DHT22;5779;64.178;15.432;2023-03-29T16:46:23;-3.40;90.30
11446;DHT22;5779;64.178;15.432;2023-03-29T16:49:12;-3.60;90.60
11446;DHT22;5779;64.178;15.432;2023-03-29T16:52:03;-3.80;90.50
11446;DHT22;5779;64.178;15.432;2023-03-29T16:54:50;-3.70;90.60
11446;DHT22;5779;64.178;15.432;2023-03-29T16:57:37;-3.70;90.50
11446;DHT22;5779;64.178;15.432;2023-03-29T17:00:26;-3.90;90.70
11446;DHT22;5779;64.178;15.432;2023-03-29T17:03:13;-4.10;90.50
11446;DHT22;5779;64.178;15.432;2023-03-29T17:06:01;-4.10;90.70
11446;DHT22;5779;64.178;15.432;2023-03-29T17:08:48;-3.90;90.40
11446;DHT22;5779;64.178;15.432;2023-03-29T17:11:35;-4.20;90.50
11446;DHT22;5779;64.178;15.432;2023-03-29T17:14:22;-4.50;90.90
11446;DHT22;5779;64.178;15.432;2023-03-29T17:17:11;-4.70;90.90
11446;DHT22;5779;64.178;15.432;2023-03-29T17:19:57;-5.00;91.30
11446;DHT22;5779;64.178;15.432;2023-03-29T17:22:44;-5.30;91.90
11446;DHT22;5779;64.178;15.432;2023-03-29T17:25:33;-5.50;92.00
11446;DHT22;5779;64.178;15.432;2023-03-29T17:28:19;-5.70;92.20
11446;DHT22;5779;64.178;15.432;2023-03-29T17:31:06;-5.80;92.40
11446;DHT22;5779;64.178;15.432;2023-03-29T17:33:54;-5.90;92.40
11446;DHT22;5779;64.178;15.432;2023-03-29T17:36:41;-5.90;92.50
11446;DHT22;5779;64.178;15.432;2023-03-29T17:39:29;-6.10;92.50
11446;DHT22;5779;64.178;15.432;2023-03-29T17:42:17;-6.20;92.90
11446;DHT22;5779;64.178;15.432;2023-03-29T17:45:05;-6.20;92.90
11446;DHT22;5779;64.178;15.432;2023-03-29T17:47:52;-6.30;92.90
11446;DHT22;5779;64.178;15.432;2023-03-29T17:50:40;-6.40;93.30
11446;DHT22;5779;64.178;15.432;2023-03-29T17:53:27;-6.60;93.80